Time;durP1;ratioP1;P1;durP2;ratioP2;P2;SDS_P1;SDS_P2;PMS_P1;PMS_P2;Temp;Humidity;BMP_temperature;BMP_pressure;BME280_temperature;BME280_humidity;BME280_pressure;Samples;Min_cycle;Max_cycle;Signal;HPM_P1;HPM_P2
2022/07/12 00:00:23;;;;;;;2.10;1.40;;;;;;;13.65;90.09;100802.44;1742954;81;27453;-83
2022/07/12 00:02:52;;;;;;;3.37;1.42;;;;;;;13.64;90.09;100804.80;1747585;81;25799;-82
2022/07/12 00:05:18;;;;;;;4.37;1.60;;;;;;;13.61;90.16;100803.05;1741955;81;25827;-84
2022/07/12 00:07:44;;;;;;;2.15;1.75;;;;;;;13.62;90.18;100802.83;1748240;81;25924;-84
2022/07/12 00:10:11;;;;;;;3.90;1.22;;;;;;;13.63;90.11;100811.23;1743651;81;25947;-83
2022/07/12 00:12:38;;;;;;;5.45;1.50;;;;;;;13.63;90.04;100812.58;1744312;81;27423;-83
2022/07/12 00:15:06;;;;;;;4.62;1.30;;;;;;;13.63;90.00;100809.89;1738627;81;25929;-83
2022/07/12 00:17:32;;;;;;;1.50;1.10;;;;;;;13.61;90.00;100807.08;1741790;81;25866;-82
2022/07/12 00:19:59;;;;;;;2.72;1.52;;;;;;;13.62;90.01;100815.48;1739521;81;26628;-84
2022/07/12 00:22:28;;;;;;;2.52;1.55;;;;;;;13.59;90.09;100814.53;1737778;81;26574;-83
2022/07/12 00:24:53;;;;;;;1.82;1.10;;;;;;;13.55;90.03;100816.80;1737691;81;28779;-83
2022/07/12 00:27:19;;;;;;;2.05;1.37;;;;;;;13.54;90.12;100821.85;1741718;81;25819;-83
2022/07/12 00:29:46;;;;;;;3.08;1.40;;;;;;;13.51;90.11;100820.09;1743829;81;25803;-82
2022/07/12 00:32:12;;;;;;;6.05;1.57;;;;;;;13.49;90.37;100818.12;1736267;81;25938;-83
2022/07/12 00:34:39;;;;;;;5.58;1.60;;;;;;;13.47;90.48;100816.14;1740032;81;25923;-81
2022/07/12 00:37:05;;;;;;;2.12;1.32;;;;;;;13.44;90.60;100819.22;1740247;81;28302;-83
2022/07/12 00:39:31;;;;;;;2.83;1.42;;;;;;;13.41;90.83;100816.95;1742649;81;25874;-83
2022/07/12 00:41:57;;;;;;;1.62;1.50;;;;;;;13.39;90.93;100816.28;1736732;81;25829;-87
2022/07/12 00:44:26;;;;;;;2.95;1.27;;;;;;;13.39;91.16;100819.81;1736092;81;25951;-82
2022/07/12 00:46:52;;;;;;;5.55;1.27;;;;;;;13.40;91.41;100817.96;1742875;81;26521;-82
2022/07/12 00:49:19;;;;;;;3.20;1.55;;;;;;;13.37;91.50;100821.04;1734577;81;27427;-83
2022/07/12 00:51:45;;;;;;;1.65;1.05;;;;;;;13.34;91.87;100819.60;1740506;81;26061;-83
2022/07/12 00:54:11;;;;;;;4.33;1.92;;;;;;;13.34;92.04;100824.14;1744124;81;25772;-81
2022/07/12 00:56:38;;;;;;;4.55;1.50;;;;;;;13.33;92.14;100823.31;1743432;81;26630;-84
2022/07/12 00:59:04;;;;;;;3.72;1.52;;;;;;;13.32;92.51;100823.01;1739468;81;25312;-82
2022/07/12 01:01:30;;;;;;;3.12;1.35;;;;;;;13.35;92.48;100814.52;1741117;81;28316;-83
2022/07/12 01:03:57;;;;;;;3.58;1.70;;;;;;;13.38;92.66;100812.79;1738868;81;25462;-84
2022/07/12 01:06:24;;;;;;;3.02;1.42;;;;;;;13.38;92.66;100810.09;1738853;81;25839;-84
2022/07/12 01:08:50;;;;;;;4.90;2.20;;;;;;;13.41;92.71;100808.88;1740332;81;25771;-83
2022/07/12 01:11:17;;;;;;;5.53;1.52;;;;;;;13.42;92.91;100814.05;1740636;81;25548;-84
2022/07/12 01:13:45;;;;;;;3.95;1.60;;;;;;;13.42;92.92;100808.66;1739669;81;28303;-84
2022/07/12 01:16:14;;;;;;;3.92;1.42;;;;;;;13.45;93.00;100810.94;1742578;81;25875;-83
2022/07/12 01:18:40;;;;;;;2.27;1.60;;;;;;;13.47;93.12;100809.41;1742373;81;26509;-84
2022/07/12 01:21:08;;;;;;;1.82;1.45;;;;;;;13.49;93.28;100813.57;1739616;81;25910;-83
2022/07/12 01:23:37;;;;;;;4.75;1.90;;;;;;;13.49;93.16;100809.53;1744617;81;25949;-83
2022/07/12 01:26:04;;;;;;;2.77;1.40;;;;;;;13.48;93.43;100815.93;1738102;81;28074;-83
2022/07/12 01:28:30;;;;;;;6.83;1.75;;;;;;;13.48;93.45;100807.86;1740168;81;26144;-83
2022/07/12 01:30:57;;;;;;;3.27;1.50;;;;;;;13.48;93.67;100804.33;1742813;81;25918;-83
2022/07/12 01:33:26;;;;;;;4.35;1.62;;;;;;;13.49;93.65;100807.35;1740897;81;26615;-82
2022/07/12 01:35:52;;;;;;;3.77;1.67;;;;;;;13.49;93.82;100805.50;1743139;81;25967;-83
2022/07/12 01:38:19;;;;;;;4.20;1.98;;;;;;;13.49;93.80;100798.77;1740926;81;27448;-81
2022/07/12 01:40:45;;;;;;;4.65;1.80;;;;;;;13.49;93.85;100801.46;1741992;81;25771;-83
2022/07/12 01:43:11;;;;;;;1.72;1.62;;;;;;;13.49;93.65;100793.89;1742025;81;25933;-82
2022/07/12 01:45:37;;;;;;;3.08;1.60;;;;;;;13.49;93.67;100793.39;1743980;81;25874;-83
2022/07/12 01:48:05;;;;;;;5.50;1.80;;;;;;;13.50;94.20;100782.08;1743887;81;25916;-83
2022/07/12 01:50:31;;;;;;;2.87;2.10;;;;;;;13.48;93.84;100779.60;1741360;81;28021;-83
2022/07/12 01:52:58;;;;;;;2.40;2.08;;;;;;;13.47;93.72;100781.16;1740287;81;25772;-82
2022/07/12 01:55:25;;;;;;;6.67;1.92;;;;;;;13.47;93.75;100789.23;1741798;81;25797;-84
2022/07/12 01:57:54;;;;;;;2.27;1.52;;;;;;;13.43;93.74;100782.05;1742715;81;25828;-83
2022/07/12 02:00:20;;;;;;;5.92;2.67;;;;;;;13.44;93.82;100780.20;1744346;81;25819;-84
2022/07/12 02:02:47;;;;;;;6.85;1.77;;;;;;;13.44;93.78;100785.08;1735539;81;27513;-84
2022/07/12 02:05:13;;;;;;;3.10;2.00;;;;;;;13.47;93.99;100782.50;1741399;81;26451;-83
2022/07/12 02:07:41;;;;;;;4.17;1.67;;;;;;;13.44;93.89;100782.38;1741162;81;26054;-83
2022/07/12 02:10:08;;;;;;;4.05;2.00;;;;;;;13.42;93.99;100783.10;1739252;81;26576;-84
2022/07/12 02:12:36;;;;;;;4.83;1.87;;;;;;;13.40;94.12;100785.67;1742571;81;26038;-83
2022/07/12 02:15:07;;;;;;;3.20;1.98;;;;;;;13.37;94.11;100785.55;1743520;81;27461;-83
2022/07/12 02:17:34;;;;;;;4.08;1.92;;;;;;;13.36;94.23;100785.25;1742341;81;25760;-82
2022/07/12 02:20:00;;;;;;;4.30;1.82;;;;;;;13.38;94.28;100779.66;1743849;81;25822;-83
2022/07/12 02:22:26;;;;;;;6.60;2.17;;;;;;;13.34;94.33;100775.20;1743335;81;26324;-83
2022/07/12 02:24:53;;;;;;;3.45;1.90;;;;;;;13.35;94.72;100776.02;1745437;81;25968;-84
2022/07/12 02:27:19;;;;;;;3.75;2.15;;;;;;;13.30;94.76;100773.12;1741796;81;27431;-84
2022/07/12 02:29:46;;;;;;;5.28;1.90;;;;;;;13.32;94.72;100771.89;1745264;81;25906;-84
2022/07/12 02:32:13;;;;;;;3.42;2.10;;;;;;;13.35;94.62;100776.02;1743459;81;25824;-82
2022/07/12 02:34:40;;;;;;;3.45;1.85;;;;;;;13.34;94.88;100773.86;1740279;81;25850;-82
2022/07/12 02:37:06;;;;;;;6.37;2.05;;;;;;;13.33;94.65;100769.50;1742880;81;26473;-83
2022/07/12 02:39:32;;;;;;;3.27;2.10;;;;;;;13.34;94.65;100769.83;1744286;81;27525;-83
2022/07/12 02:41:59;;;;;;;7.30;2.33;;;;;;;13.31;94.83;100767.52;1746978;81;25776;-84
2022/07/12 02:44:25;;;;;;;2.62;2.00;;;;;;;13.31;94.92;100766.18;1740861;81;25781;-83
2022/07/12 02:46:52;;;;;;;2.95;2.30;;;;;;;13.31;94.99;100756.77;1747633;81;25830;-85
2022/07/12 02:49:18;;;;;;;3.87;2.55;;;;;;;13.29;94.98;100756.14;1741441;81;25851;-84
2022/07/12 02:51:44;;;;;;;4.92;2.42;;;;;;;13.27;95.20;100758.20;1745521;81;28294;-85
2022/07/12 02:54:11;;;;;;;6.08;3.05;;;;;;;13.27;95.11;100760.05;1746304;81;25744;-85
2022/07/12 02:56:37;;;;;;;2.90;2.60;;;;;;;13.27;95.35;100759.55;1743646;81;25839;-84
2022/07/12 02:59:03;;;;;;;4.08;3.05;;;;;;;13.28;95.32;100765.77;1744540;81;25916;-83
2022/07/12 03:01:29;;;;;;;4.17;3.12;;;;;;;13.28;95.43;100759.03;1743237;81;25935;-84
2022/07/12 03:03:56;;;;;;;4.78;2.90;;;;;;;13.27;95.41;100763.58;1746918;81;26902;-83
2022/07/12 03:06:22;;;;;;;3.98;2.67;;;;;;;13.29;95.40;100759.33;1743040;81;25820;-82
2022/07/12 03:08:48;;;;;;;3.45;3.02;;;;;;;13.31;95.55;100753.23;1743833;81;25950;-84
2022/07/12 03:11:15;;;;;;;6.15;3.83;;;;;;;13.33;95.81;100741.25;1739338;81;25812;-83
2022/07/12 03:13:41;;;;;;;3.30;3.00;;;;;;;13.35;95.83;100747.26;1741130;81;26730;-84
2022/07/12 03:16:07;;;;;;;4.22;2.98;;;;;;;13.39;95.88;100750.36;1742949;81;27101;-84
2022/07/12 03:18:34;;;;;;;7.78;3.40;;;;;;;13.41;96.28;100742.41;1738132;81;25347;-82
2022/07/12 03:21:00;;;;;;;6.60;3.65;;;;;;;13.42;96.10;100740.56;1737943;81;25942;-82
2022/07/12 03:23:27;;;;;;;5.12;3.37;;;;;;;13.45;96.38;100740.16;1737809;81;26727;-84
2022/07/12 03:25:54;;;;;;;5.72;2.95;;;;;;;13.49;96.28;100746.30;1739760;81;25960;-83
2022/07/12 03:28:21;;;;;;;3.95;3.12;;;;;;;13.52;96.53;100746.38;1737864;81;28352;-85
2022/07/12 03:30:47;;;;;;;4.08;3.33;;;;;;;13.54;96.57;100751.04;1740326;81;25917;-84
2022/07/12 03:33:14;;;;;;;6.47;3.40;;;;;;;13.58;96.51;100748.28;1738163;81;25804;-84
2022/07/12 03:35:40;;;;;;;7.00;3.35;;;;;;;13.60;96.41;100754.30;1740447;81;25957;-84
2022/07/12 03:38:06;;;;;;;4.62;4.22;;;;;;;13.62;96.50;100753.58;1738745;81;25939;-84
2022/07/12 03:40:34;;;;;;;5.75;3.62;;;;;;;13.63;96.49;100750.67;1743809;81;27507;-82
2022/07/12 03:43:01;;;;;;;3.98;3.30;;;;;;;13.66;96.46;100748.94;1740355;81;25941;-84
2022/07/12 03:45:27;;;;;;;3.58;3.30;;;;;;;13.68;96.45;100748.21;1739158;81;25862;-83
2022/07/12 03:47:53;;;;;;;4.42;3.30;;;;;;;13.72;96.77;100756.70;1741018;80;25771;-82
2022/07/12 03:50:20;;;;;;;4.08;3.67;;;;;;;13.72;96.81;100748.63;1744469;81;26397;-84
2022/07/12 03:52:46;;;;;;;5.03;3.87;;;;;;;13.73;96.83;100760.52;1743792;81;27442;-83
2022/07/12 03:55:13;;;;;;;6.70;3.40;;;;;;;13.76;96.84;100763.34;1738664;81;25503;-82
2022/07/12 03:57:39;;;;;;;4.17;3.70;;;;;;;13.76;97.67;100754.75;1738717;81;25697;-85
2022/07/12 04:00:12;;;;;;;3.77;3.42;;;;;;;13.79;97.21;100752.98;1742351;81;25849;-83
2022/07/12 04:02:40;;;;;;;4.72;3.80;;;;;;;13.85;97.38;100745.45;1737654;81;25857;-83
2022/07/12 04:05:08;;;;;;;7.28;3.47;;;;;;;13.91;97.17;100750.02;1736958;81;27442;-83
2022/07/12 04:07:35;;;;;;;4.58;3.35;;;;;;;13.97;97.18;100745.66;1737706;81;25891;-83
2022/07/12 04:10:04;;;;;;;6.92;3.30;;;;;;;13.99;97.06;100742.25;1736342;81;25879;-82
2022/07/12 04:12:31;;;;;;;5.78;3.15;;;;;;;14.03;97.07;100744.03;1738674;81;26007;-84
2022/07/12 04:14:57;;;;;;;4.47;3.22;;;;;;;14.06;97.53;100745.78;1736352;81;26738;-84
2022/07/12 04:17:23;;;;;;;4.45;2.83;;;;;;;14.07;97.13;100743.39;1738162;81;27420;-83
2022/07/12 04:19:50;;;;;;;3.47;2.90;;;;;;;14.11;97.34;100748.70;1732842;81;25836;-83
2022/07/12 04:22:16;;;;;;;6.17;2.70;;;;;;;14.12;97.18;100739.57;1737690;81;25774;-86
2022/07/12 04:24:43;;;;;;;4.15;3.02;;;;;;;14.17;96.92;100733.56;1739130;81;25794;-84
2022/07/12 04:27:09;;;;;;;5.95;3.05;;;;;;;14.21;97.15;100728.91;1737794;81;26424;-84
2022/07/12 04:29:35;;;;;;;9.48;3.00;;;;;;;14.27;97.07;100728.08;1739454;81;27450;-82
2022/07/12 04:32:02;;;;;;;3.30;2.90;;;;;;;14.34;97.00;100726.77;1738485;81;25919;-84
2022/07/12 04:34:28;;;;;;;5.53;2.62;;;;;;;14.39;96.83;100730.47;1736525;81;26477;-83
2022/07/12 04:36:55;;;;;;;3.55;2.58;;;;;;;14.49;96.91;100730.91;1737012;81;26576;-83
2022/07/12 04:39:21;;;;;;;2.60;2.40;;;;;;;14.58;97.51;100719.39;1740646;81;25858;-84
2022/07/12 04:41:47;;;;;;;4.12;2.50;;;;;;;14.65;97.32;100718.33;1737328;81;28425;-84
2022/07/12 04:44:14;;;;;;;3.35;2.85;;;;;;;14.69;96.96;100714.70;1740519;81;26489;-83
2022/07/12 04:46:40;;;;;;;5.10;2.58;;;;;;;14.75;96.72;100707.63;1734622;81;25811;-84
2022/07/12 04:49:06;;;;;;;2.65;2.17;;;;;;;14.80;96.59;100707.30;1736487;81;26271;-83
2022/07/12 04:51:32;;;;;;;3.10;2.30;;;;;;;14.86;96.68;100703.78;1738730;81;25795;-83
2022/07/12 04:53:59;;;;;;;6.97;2.27;;;;;;;14.95;96.70;100699.78;1739120;81;28096;-84
2022/07/12 04:56:25;;;;;;;3.00;2.37;;;;;;;15.06;96.65;100704.52;1742342;81;25863;-84
2022/07/12 04:58:52;;;;;;;3.47;2.40;;;;;;;15.16;96.51;100710.28;1743352;81;25564;-84
2022/07/12 05:01:19;;;;;;;5.12;2.37;;;;;;;15.26;96.19;100716.59;1742125;81;25808;-85
2022/07/12 05:03:45;;;;;;;3.33;2.25;;;;;;;15.34;95.99;100705.55;1744799;81;26623;-84
2022/07/12 05:06:11;;;;;;;3.70;2.37;;;;;;;15.44;96.05;100705.41;1744094;81;28278;-82
2022/07/12 05:08:38;;;;;;;6.40;2.27;;;;;;;15.53;95.65;100701.94;1742328;81;26641;-82
2022/07/12 05:11:07;;;;;;;3.45;2.15;;;;;;;15.61;95.49;100703.03;1743827;81;25495;-85
2022/07/12 05:13:33;;;;;;;7.67;2.95;;;;;;;15.72;95.47;100700.16;1738285;81;25757;-82
2022/07/12 05:15:59;;;;;;;3.42;2.37;;;;;;;15.80;94.71;100691.82;1733847;81;25802;-84
2022/07/12 05:18:26;;;;;;;2.25;2.00;;;;;;;15.85;94.44;100701.42;1740332;81;28274;-84
2022/07/12 05:20:52;;;;;;;6.03;2.15;;;;;;;15.91;94.42;100698.68;1744798;81;25809;-83
2022/07/12 05:23:19;;;;;;;2.65;1.80;;;;;;;15.99;94.13;100691.69;1745991;81;26039;-84
2022/07/12 05:25:46;;;;;;;2.20;2.00;;;;;;;16.06;94.08;100695.66;1739198;81;26677;-84
2022/07/12 05:28:15;;;;;;;2.08;1.92;;;;;;;16.05;93.49;100692.66;1737333;81;25288;-84
2022/07/12 05:30:45;;;;;;;4.50;2.12;;;;;;;16.08;93.38;100697.09;1737424;81;27469;-84
2022/07/12 05:33:14;;;;;;;6.58;2.87;;;;;;;16.13;93.49;100699.98;1737124;81;25327;-84
2022/07/12 05:35:40;;;;;;;2.30;2.05;;;;;;;16.11;92.66;100694.48;1739335;81;25865;-84
2022/07/12 05:38:06;;;;;;;3.17;2.15;;;;;;;16.07;92.65;100694.63;1739007;81;26586;-86
2022/07/12 05:40:33;;;;;;;4.67;2.10;;;;;;;16.11;92.80;100697.19;1739725;81;25843;-83
2022/07/12 05:42:59;;;;;;;5.30;1.85;;;;;;;16.20;92.74;100699.92;1741317;81;27426;-84
2022/07/12 05:45:26;;;;;;;2.75;1.62;;;;;;;16.21;92.59;100698.86;1741179;81;25801;-85
2022/07/12 05:47:52;;;;;;;2.10;1.90;;;;;;;16.30;93.19;100694.00;1739200;81;25797;-85
2022/07/12 05:50:18;;;;;;;4.67;1.77;;;;;;;16.44;93.34;100698.26;1741140;81;26559;-83
2022/07/12 05:55:29;;;;;;;1.75;1.42;;;;;;;16.45;91.77;100699.89;1739112;81;27483;-84
2022/07/12 05:57:56;;;;;;;2.05;1.10;;;;;;;16.46;91.81;100698.86;1742357;81;26330;-85
2022/07/12 06:00:22;;;;;;;3.10;1.60;;;;;;;16.48;91.95;100697.59;1738325;81;25291;-84
2022/07/12 06:02:48;;;;;;;4.50;1.70;;;;;;;16.49;92.14;100696.53;1741300;81;26015;-86
2022/07/12 06:05:15;;;;;;;4.40;2.05;;;;;;;16.50;91.46;100700.93;1740458;81;25868;-85
2022/07/12 06:07:42;;;;;;;4.20;1.30;;;;;;;16.49;91.01;100697.87;1738792;81;27436;-84
2022/07/12 06:10:09;;;;;;;4.00;1.52;;;;;;;16.53;90.79;100696.96;1740835;81;26582;-84
2022/07/12 06:12:37;;;;;;;3.02;1.62;;;;;;;16.50;90.53;100690.63;1737140;81;25880;-85
2022/07/12 06:15:06;;;;;;;3.50;1.70;;;;;;;16.50;90.70;100688.77;1738483;81;26521;-84
2022/07/12 06:17:34;;;;;;;2.50;1.40;;;;;;;16.49;90.54;100687.06;1739594;81;25908;-85
2022/07/12 06:20:00;;;;;;;3.25;1.47;;;;;;;16.50;90.71;100690.11;1736977;81;27695;-85
2022/07/12 06:22:27;;;;;;;3.02;1.60;;;;;;;16.56;90.60;100689.22;1740846;81;26165;-85
2022/07/12 06:24:53;;;;;;;3.35;1.50;;;;;;;16.64;90.69;100690.79;1741127;81;25757;-84
2022/07/12 06:27:19;;;;;;;2.42;1.40;;;;;;;16.76;90.02;100690.37;1745556;81;25775;-85
2022/07/12 06:29:47;;;;;;;1.32;1.17;;;;;;;16.79;89.00;100709.67;1742429;81;25769;-85
2022/07/12 06:32:16;;;;;;;3.67;1.47;;;;;;;16.78;88.46;100695.86;1738650;81;27455;-84
2022/07/12 06:34:42;;;;;;;3.72;1.32;;;;;;;16.88;89.10;100700.73;1734593;81;25747;-83
2022/07/12 06:37:08;;;;;;;1.95;1.20;;;;;;;16.93;88.14;100690.91;1739084;81;25776;-84
2022/07/12 06:39:37;;;;;;;4.50;1.37;;;;;;;16.99;87.85;100695.93;1740483;81;26516;-83
2022/07/12 06:42:04;;;;;;;3.42;1.30;;;;;;;17.06;88.67;100691.80;1735610;81;25879;-84
2022/07/12 06:44:31;;;;;;;2.90;1.65;;;;;;;17.15;86.90;100685.83;1741908;81;27466;-84
2022/07/12 06:46:59;;;;;;;2.45;0.93;;;;;;;17.25;87.37;100687.49;1745379;81;25888;-84
2022/07/12 06:49:25;;;;;;;6.95;1.77;;;;;;;17.39;86.56;100686.77;1739173;81;25806;-84
2022/07/12 06:51:52;;;;;;;1.37;1.12;;;;;;;17.49;86.73;100696.00;1741505;81;25970;-84
2022/07/12 06:54:18;;;;;;;5.87;0.95;;;;;;;17.58;85.35;100690.59;1744018;81;25924;-84
2022/07/12 06:56:44;;;;;;;2.45;1.25;;;;;;;17.64;85.52;100694.28;1741020;81;27452;-83
2022/07/12 06:59:11;;;;;;;7.37;1.85;;;;;;;17.74;85.29;100693.19;1736399;81;25998;-84
2022/07/12 07:01:38;;;;;;;5.28;1.32;;;;;;;17.88;85.40;100687.86;1734819;81;25885;-83
2022/07/12 07:04:04;;;;;;;2.33;1.47;;;;;;;17.96;84.79;100690.78;1736146;81;25849;-85
2022/07/12 07:06:30;;;;;;;3.08;1.12;;;;;;;17.99;84.35;100702.49;1740343;81;25914;-84
2022/07/12 07:08:57;;;;;;;2.10;0.93;;;;;;;17.94;83.61;100710.52;1736403;81;27429;-83
2022/07/12 07:11:23;;;;;;;3.25;1.07;;;;;;;17.94;84.05;100713.22;1739469;81;26010;-84
2022/07/12 07:13:49;;;;;;;3.62;0.98;;;;;;;17.92;83.76;100709.37;1738517;81;26108;-84
2022/07/12 07:16:16;;;;;;;2.30;1.02;;;;;;;17.98;83.98;100703.56;1738695;81;25968;-85
2022/07/12 07:18:42;;;;;;;1.52;0.90;;;;;;;18.08;83.56;100701.11;1742189;81;25842;-86
2022/07/12 07:21:08;;;;;;;3.35;1.12;;;;;;;18.14;83.42;100697.45;1734106;81;27445;-85
2022/07/12 07:23:34;;;;;;;4.15;1.12;;;;;;;18.25;83.49;100698.00;1739449;81;25671;-84
2022/07/12 07:26:01;;;;;;;5.28;1.20;;;;;;;18.32;83.48;100699.56;1737398;81;26017;-84
2022/07/12 07:28:27;;;;;;;2.20;1.00;;;;;;;18.41;83.17;100706.81;1739345;81;26384;-85
2022/07/12 07:30:54;;;;;;;4.12;1.25;;;;;;;18.52;82.45;100706.56;1740524;81;25851;-84
2022/07/12 07:33:22;;;;;;;1.95;0.85;;;;;;;18.53;82.03;100706.84;1737969;81;27499;-85
2022/07/12 07:35:50;;;;;;;2.83;1.02;;;;;;;18.53;82.08;100709.03;1735719;81;26027;-84
2022/07/12 07:38:18;;;;;;;1.85;1.05;;;;;;;18.55;81.61;100710.97;1743405;81;25823;-86
2022/07/12 07:40:46;;;;;;;1.07;0.90;;;;;;;18.58;81.60;100705.61;1745460;81;25929;-83
2022/07/12 07:43:12;;;;;;;3.50;1.07;;;;;;;18.65;81.37;100700.34;1741439;81;25986;-85
2022/07/12 07:45:38;;;;;;;1.25;0.80;;;;;;;18.67;80.87;100709.62;1738879;81;27445;-85
2022/07/12 07:48:05;;;;;;;4.33;0.98;;;;;;;18.71;80.12;100716.22;1739598;81;25831;-83
2022/07/12 07:50:31;;;;;;;1.20;0.90;;;;;;;18.78;80.48;100708.77;1740195;81;25354;-85
2022/07/12 07:52:58;;;;;;;1.75;1.00;;;;;;;18.93;80.94;100699.60;1736683;81;26100;-85
2022/07/12 07:55:24;;;;;;;4.45;1.20;;;;;;;18.92;79.43;100701.52;1738133;81;26515;-85
2022/07/12 07:57:50;;;;;;;3.17;0.93;;;;;;;18.89;79.47;100707.93;1737875;81;28156;-85
2022/07/12 08:00:17;;;;;;;3.72;1.02;;;;;;;18.87;78.44;100704.11;1743937;81;25997;-84
2022/07/12 08:02:43;;;;;;;1.42;1.10;;;;;;;18.89;78.82;100708.77;1745432;81;25795;-83
2022/07/12 08:05:09;;;;;;;4.60;1.22;;;;;;;18.87;77.73;100705.98;1741394;81;25962;-84
2022/07/12 08:07:36;;;;;;;2.60;1.42;;;;;;;18.80;77.84;100704.75;1743824;81;25300;-84
2022/07/12 08:10:02;;;;;;;2.52;1.27;;;;;;;18.79;77.85;100700.93;1742365;81;28060;-85
2022/07/12 08:12:28;;;;;;;3.60;0.98;;;;;;;18.87;79.03;100708.18;1743914;81;25824;-84
2022/07/12 08:14:55;;;;;;;3.17;0.93;;;;;;;18.98;79.15;100701.08;1744663;81;25312;-84
2022/07/12 08:17:21;;;;;;;2.22;0.90;;;;;;;19.11;78.43;100696.22;1744436;81;26527;-86
2022/07/12 08:19:47;;;;;;;2.08;1.10;;;;;;;19.16;75.47;100706.37;1746669;81;26095;-83
2022/07/12 08:22:13;;;;;;;1.12;1.02;;;;;;;18.98;76.24;100707.34;1739156;81;27449;-85
2022/07/12 08:24:42;;;;;;;3.75;1.07;;;;;;;18.94;75.69;100703.98;1737881;81;26041;-83
2022/07/12 08:27:08;;;;;;;6.03;1.20;;;;;;;18.88;74.76;100699.52;1740444;81;25870;-85
2022/07/12 08:29:34;;;;;;;2.08;1.20;;;;;;;18.90;76.10;100708.23;1737420;81;26587;-85
2022/07/12 08:32:01;;;;;;;4.05;1.27;;;;;;;18.89;75.91;100710.12;1737648;81;25911;-85
2022/07/12 08:34:27;;;;;;;1.62;0.98;;;;;;;18.86;75.23;100701.09;1740782;81;26896;-85
2022/07/12 08:36:54;;;;;;;2.30;1.00;;;;;;;18.90;75.34;100701.45;1741064;81;25866;-84
2022/07/12 08:39:20;;;;;;;2.22;1.00;;;;;;;19.01;76.26;100710.11;1739026;81;25779;-84
2022/07/12 08:41:46;;;;;;;2.25;1.05;;;;;;;19.04;73.85;100705.55;1741666;81;25809;-85
2022/07/12 08:44:13;;;;;;;4.37;1.37;;;;;;;19.04;73.00;100709.62;1736954;81;26453;-84
2022/07/12 08:46:39;;;;;;;2.05;1.15;;;;;;;19.03;73.85;100708.78;1738869;81;27465;-85
2022/07/12 08:49:09;;;;;;;2.12;1.15;;;;;;;19.02;73.09;100712.58;1737244;81;25784;-82
2022/07/12 08:51:35;;;;;;;3.15;1.17;;;;;;;19.09;75.11;100705.66;1738979;81;26421;-85
2022/07/12 08:54:10;;;;;;;2.02;0.95;;;;;;;19.15;72.79;100710.13;1740678;81;25839;-83
2022/07/12 08:56:42;;;;;;;1.55;1.00;;;;;;;19.14;73.87;100717.97;1738525;81;25944;-84
2022/07/12 08:59:20;;;;;;;1.92;1.10;;;;;;;19.21;73.27;100699.66;1737784;81;28593;-84
2022/07/12 09:01:53;;;;;;;2.22;1.07;;;;;;;19.30;74.38;100700.11;1738485;81;25928;-85
2022/07/12 09:04:23;;;;;;;2.00;1.00;;;;;;;19.34;71.60;100699.42;1735373;81;25814;-84
2022/07/12 09:06:50;;;;;;;4.00;1.10;;;;;;;19.34;72.99;100707.56;1715403;81;25761;-84
2022/07/12 09:09:32;;;;;;;4.87;1.37;;;;;;;19.35;72.28;100711.95;1742055;81;26810;-84
2022/07/12 09:11:59;;;;;;;2.10;0.93;;;;;;;19.40;73.45;100708.48;1737606;81;27682;-84
2022/07/12 09:14:26;;;;;;;2.67;1.22;;;;;;;19.35;71.52;100701.61;1736730;81;25886;-82
2022/07/12 09:17:13;;;;;;;2.92;0.82;;;;;;;19.37;72.24;100691.33;1736892;81;25977;-83
2022/07/12 09:19:39;;;;;;;0.95;0.80;;;;;;;19.40;69.16;100697.09;1740328;81;26146;-85
2022/07/12 09:22:17;;;;;;;1.32;0.88;;;;;;;19.43;70.89;100688.47;1739474;81;26152;-86
2022/07/12 09:24:44;;;;;;;7.28;0.88;;;;;;;19.51;71.14;100683.16;1731255;81;27511;-85
2022/07/12 09:27:11;;;;;;;1.12;0.98;;;;;;;19.58;71.12;100693.36;1737229;81;25859;-84
2022/07/12 09:29:51;;;;;;;1.30;0.90;;;;;;;19.60;70.57;100689.86;1738367;81;25843;-82
2022/07/12 09:37:49;;;;;;;1.95;0.60;;;;;;;19.70;68.10;100684.61;1738422;81;28482;-83
2022/07/12 09:40:15;;;;;;;2.45;0.70;;;;;;;19.69;68.22;100685.17;1740549;81;25834;-84
2022/07/12 09:42:42;;;;;;;1.62;0.80;;;;;;;19.71;67.38;100676.23;1739676;81;25310;-84
2022/07/12 09:45:10;;;;;;;4.80;0.78;;;;;;;19.76;68.67;100670.87;1735421;81;25790;-83
2022/07/12 09:47:37;;;;;;;1.17;0.50;;;;;;;19.87;68.04;100678.66;1742803;81;25779;-83
2022/07/12 09:50:07;;;;;;;3.10;0.68;;;;;;;19.89;66.60;100667.84;1746569;81;27508;-84
2022/07/12 09:52:38;;;;;;;1.60;0.90;;;;;;;19.90;67.57;100679.02;1740070;81;26545;-82
2022/07/12 09:55:07;;;;;;;0.90;0.53;;;;;;;19.93;67.32;100674.98;1714924;81;25876;-84
2022/07/12 09:57:37;;;;;;;2.00;0.78;;;;;;;20.01;66.14;100665.06;1735250;81;25860;-85
2022/07/12 10:00:07;;;;;;;2.05;0.70;;;;;;;20.04;66.45;100662.39;1740790;81;25601;-84
2022/07/12 10:02:40;;;;;;;1.98;0.65;;;;;;;20.07;64.78;100670.86;1742865;81;27467;-83
2022/07/12 10:05:09;;;;;;;1.67;0.50;;;;;;;20.15;65.30;100662.81;1738853;81;25812;-84
2022/07/12 10:07:38;;;;;;;1.12;0.80;;;;;;;20.17;65.38;100668.30;1743718;81;25852;-84
2022/07/12 10:10:06;;;;;;;0.57;0.50;;;;;;;20.16;63.41;100648.16;1747491;81;26591;-84
2022/07/12 10:12:32;;;;;;;1.35;0.62;;;;;;;20.16;64.39;100653.59;1740200;81;25802;-84
2022/07/12 10:15:03;;;;;;;1.72;0.75;;;;;;;20.19;62.79;100647.67;1739960;81;27463;-83
2022/07/12 10:17:30;;;;;;;3.05;0.88;;;;;;;20.24;64.04;100654.56;1738371;81;26267;-83
2022/07/12 10:20:22;;;;;;;0.45;0.45;;;;;;;20.31;65.57;100651.98;1738875;81;26064;-84
2022/07/12 10:22:48;;;;;;;0.70;0.68;;;;;;;20.47;65.41;100657.09;1740771;81;25868;-84
2022/07/12 10:25:28;;;;;;;0.95;0.60;;;;;;;20.60;64.28;100642.59;1735978;81;25374;-83
2022/07/12 10:27:54;;;;;;;0.40;0.40;;;;;;;20.68;64.38;100643.52;1737975;81;28293;-83
2022/07/12 10:30:23;;;;;;;1.07;0.50;;;;;;;20.76;64.62;100645.00;1739616;81;25762;-83
2022/07/12 10:32:53;;;;;;;0.93;0.60;;;;;;;20.81;64.35;100644.24;1742685;81;26021;-83
2022/07/12 10:35:22;;;;;;;2.95;0.50;;;;;;;20.82;62.69;100646.70;1736175;81;25979;-83
2022/07/12 10:38:18;;;;;;;3.83;0.62;;;;;;;20.86;63.80;100648.38;1742444;81;26507;-84
2022/07/12 10:40:47;;;;;;;3.83;0.57;;;;;;;20.85;62.11;100650.27;1742044;81;27460;-84
2022/07/12 10:43:16;;;;;;;0.47;0.47;;;;;;;20.80;60.98;100641.22;1739310;81;25800;-84
2022/07/12 10:45:46;;;;;;;3.87;0.62;;;;;;;20.77;61.31;100634.38;1743530;81;26477;-83
2022/07/12 10:48:20;;;;;;;2.93;0.83;;;;;;;20.80;61.08;100631.70;1742418;81;25813;-84
2022/07/12 10:51:01;;;;;;;1.05;0.50;;;;;;;20.83;60.50;100632.56;1743963;81;25932;-84
2022/07/12 10:53:34;;;;;;;6.83;2.58;;;;;;;20.81;60.53;100624.63;1738588;81;27459;-82
2022/07/12 10:56:25;;;;;;;0.68;0.42;;;;;;;20.78;59.18;100627.31;1742649;81;25812;-84
2022/07/12 10:58:55;;;;;;;0.75;0.65;;;;;;;20.72;60.25;100632.41;1742264;81;25760;-83
2022/07/12 11:01:29;;;;;;;3.37;0.60;;;;;;;20.72;60.27;100627.52;1739690;81;26519;-84
2022/07/12 11:04:08;;;;;;;0.75;0.50;;;;;;;20.72;60.59;100624.80;1742033;81;25896;-85
2022/07/12 11:06:38;;;;;;;4.22;0.55;;;;;;;20.73;60.81;100623.18;1739621;81;27466;-84
2022/07/12 11:09:11;;;;;;;1.15;0.40;;;;;;;20.70;57.77;100617.40;1738654;81;25841;-84
2022/07/12 11:11:48;;;;;;;0.88;0.40;;;;;;;20.66;58.65;100617.63;1741311;81;25751;-84
2022/07/12 11:14:30;;;;;;;3.47;0.62;;;;;;;20.68;59.98;100620.91;1740900;81;26366;-83
2022/07/12 11:16:57;;;;;;;2.15;0.78;;;;;;;20.68;59.02;100623.63;1739055;81;26100;-83
2022/07/12 11:19:27;;;;;;;4.22;0.70;;;;;;;20.65;58.72;100620.07;1734675;81;28550;-81
2022/07/12 11:21:59;;;;;;;1.45;0.60;;;;;;;20.66;58.17;100620.34;1734670;81;26407;-79
2022/07/12 11:24:27;;;;;;;3.45;0.95;;;;;;;20.66;58.47;100613.53;1736512;81;25903;-80
2022/07/12 11:26:54;;;;;;;;;;;;;;;20.68;58.73;100612.75;1740114;81;26089;-83
2022/07/12 11:29:22;;;;;;;2.72;0.68;;;;;;;20.68;58.97;100614.94;1739000;81;25954;-84
2022/07/12 11:31:49;;;;;;;3.05;1.05;;;;;;;20.65;59.39;100623.63;1738675;81;27464;-85
2022/07/12 11:34:26;;;;;;;2.37;0.50;;;;;;;20.60;57.73;100622.19;1728085;81;25346;-81